Time;durP1;ratioP1;P1;durP2;ratioP2;P2;SDS_P1;SDS_P2;PMS_P1;PMS_P2;Temp;Humidity;BMP_temperature;BMP_pressure;BME280_temperature;BME280_humidity;BME280_pressure;Samples;Min_cycle;Max_cycle;Signal;HPM_P1;HPM_P2
2022/11/17 00:01:57;;;;;;;13.05;5.47;;;7.60;99.90;;;;;;5054789;28;20448;-86
2022/11/17 00:04:27;;;;;;;13.85;5.22;;;7.60;99.90;;;;;;5071418;28;20033;-86
2022/11/17 00:06:55;;;;;;;11.57;5.32;;;7.60;99.90;;;;;;5055648;28;20083;-86
2022/11/17 00:09:22;;;;;;;11.77;5.40;;;7.60;99.90;;;;;;5070944;28;20437;-86
2022/11/17 00:14:36;;;;;;;10.32;4.80;;;7.60;99.90;;;;;;5075586;28;20045;-86
2022/11/17 00:17:06;;;;;;;10.25;5.57;;;7.60;99.90;;;;;;5107498;28;20519;-85
2022/11/17 00:22:19;;;;;;;11.25;4.82;;;7.60;99.90;;;;;;5093087;28;20127;-85
2022/11/17 00:24:47;;;;;;;10.45;4.70;;;7.60;99.90;;;;;;5074007;28;20037;-86
2022/11/17 00:27:14;;;;;;;9.75;5.10;;;7.60;99.90;;;;;;5085254;28;20032;-86
2022/11/17 00:29:40;;;;;;;8.93;4.80;;;7.60;99.90;;;;;;5053895;28;20083;-86
2022/11/17 00:34:57;;;;;;;10.07;5.30;;;7.50;99.90;;;;;;5087256;28;20036;-86
2022/11/17 00:37:24;;;;;;;8.00;4.50;;;7.50;99.90;;;;;;5037064;28;20048;-85
2022/11/17 00:39:51;;;;;;;12.38;5.43;;;7.50;99.90;;;;;;5070176;28;20037;-86
2022/11/17 00:42:18;;;;;;;9.13;5.00;;;7.40;99.90;;;;;;5037666;28;20053;-86
2022/11/17 00:44:45;;;;;;;12.00;4.80;;;7.40;99.90;;;;;;5070222;28;20041;-86
2022/11/17 00:47:11;;;;;;;11.40;5.13;;;7.40;99.90;;;;;;5053982;28;20036;-86
2022/11/17 00:49:38;;;;;;;11.23;4.72;;;7.70;99.90;;;;;;5068660;28;20039;-86
2022/11/17 00:52:05;;;;;;;9.77;4.85;;;7.40;99.90;;;;;;5037793;28;20121;-86
2022/11/17 00:54:31;;;;;;;11.50;4.65;;;7.30;99.90;;;;;;5053696;28;20036;-86
2022/11/17 00:56:58;;;;;;;8.60;4.80;;;7.30;99.90;;;;;;5054048;28;20040;-86
2022/11/17 00:59:25;;;;;;;8.93;4.43;;;7.60;99.90;;;;;;5037206;28;20409;-86
2022/11/17 01:01:51;;;;;;;10.40;5.07;;;7.30;99.90;;;;;;5037442;28;20048;-86
2022/11/17 01:04:18;;;;;;;11.23;4.63;;;7.30;99.90;;;;;;5069776;28;20563;-86
2022/11/17 01:06:47;;;;;;;9.48;5.28;;;7.30;99.90;;;;;;5037131;28;20503;-86
2022/11/17 01:09:21;;;;;;;14.20;4.78;;;7.20;99.90;;;;;;5070556;28;20476;-85
2022/11/17 01:11:49;;;;;;;7.43;4.28;;;7.20;99.90;;;;;;5069680;28;20469;-86
2022/11/17 01:14:19;;;;;;;9.10;5.00;;;7.20;99.90;;;;;;5086677;28;20083;-86
2022/11/17 01:16:46;;;;;;;8.98;4.78;;;7.50;99.90;;;;;;5069788;28;20517;-86
2022/11/17 01:19:14;;;;;;;7.28;4.13;;;7.10;99.90;;;;;;5076251;28;20222;-85
2022/11/17 01:21:41;;;;;;;8.93;4.55;;;7.20;99.90;;;;;;5089389;28;20096;-86
2022/11/17 01:24:10;;;;;;;10.30;5.22;;;7.30;99.90;;;;;;5073381;28;20040;-86
2022/11/17 01:26:38;;;;;;;9.85;4.95;;;7.10;99.90;;;;;;5089694;28;20037;-86
2022/11/17 01:29:05;;;;;;;10.57;5.35;;;7.30;99.90;;;;;;5056857;28;20063;-86
2022/11/17 01:31:35;;;;;;;10.38;5.10;;;7.10;99.90;;;;;;5073030;28;20493;-86
2022/11/17 01:34:01;;;;;;;9.30;5.30;;;7.10;99.90;;;;;;5095278;28;20075;-86
2022/11/17 01:37:17;;;;;;;8.50;4.78;;;7.10;99.90;;;;;;5053108;28;20519;-86
2022/11/17 01:39:18;;;;;;;7.28;4.13;;;7.10;99.90;;;;;;5086519;28;20048;-86
2022/11/17 01:41:45;;;;;;;10.25;4.78;;;7.10;99.90;;;;;;5074396;28;20402;-86
2022/11/17 01:44:50;;;;;;;8.70;4.30;;;7.10;99.90;;;;;;5073326;28;20044;-86
2022/11/17 01:47:26;;;;;;;10.88;4.68;;;7.10;99.90;;;;;;5089813;28;20051;-86
2022/11/17 01:50:15;;;;;;;9.95;4.80;;;7.10;99.90;;;;;;5089287;28;20036;-86
2022/11/17 01:52:43;;;;;;;9.50;4.80;;;7.10;99.90;;;;;;5098920;28;20049;-86
2022/11/17 01:55:11;;;;;;;10.45;4.45;;;7.10;99.90;;;;;;5073297;28;20048;-86
2022/11/17 01:57:44;;;;;;;9.82;4.47;;;7.10;99.90;;;;;;5089175;28;20074;-86
2022/11/17 02:00:11;;;;;;;10.52;4.82;;;7.10;99.90;;;;;;5089058;28;20041;-86
2022/11/17 02:02:39;;;;;;;7.50;4.25;;;7.20;99.90;;;;;;5036728;28;20111;-86
2022/11/17 02:05:22;;;;;;;7.03;4.15;;;7.20;99.90;;;;;;5069254;28;20036;-86
2022/11/17 02:07:53;;;;;;;7.50;4.03;;;7.20;99.90;;;;;;5069265;28;20049;-86
2022/11/17 02:10:20;;;;;;;11.35;4.40;;;7.10;99.90;;;;;;5069608;28;20048;-86
2022/11/17 02:12:47;;;;;;;7.53;4.20;;;7.20;99.90;;;;;;5052403;28;20128;-86
2022/11/17 02:15:14;;;;;;;9.48;4.53;;;7.20;99.90;;;;;;5052965;28;20091;-85
2022/11/17 02:17:42;;;;;;;9.90;4.47;;;7.60;99.90;;;;;;5058368;28;20512;-86
2022/11/17 02:20:27;;;;;;;9.35;4.95;;;7.10;99.90;;;;;;5088770;28;20045;-86
2022/11/17 02:23:23;;;;;;;6.47;4.07;;;7.20;99.90;;;;;;5089230;28;20051;-85
2022/11/17 02:26:20;;;;;;;9.02;4.60;;;7.20;99.90;;;;;;5088526;28;20039;-86
2022/11/17 02:29:02;;;;;;;9.05;4.47;;;7.20;99.90;;;;;;5105593;28;20124;-85
2022/11/17 02:31:49;;;;;;;9.20;4.97;;;7.20;99.90;;;;;;5089110;28;20443;-86
2022/11/17 02:34:41;;;;;;;9.35;4.43;;;7.30;99.90;;;;;;5081614;28;20440;-87
2022/11/17 02:37:30;;;;;;;9.32;4.30;;;7.20;99.90;;;;;;5069627;28;20052;-86
2022/11/17 02:40:12;;;;;;;8.93;4.32;;;7.30;99.90;;;;;;5085762;28;20374;-87
2022/11/17 02:45:50;;;;;;;9.43;4.72;;;7.30;99.90;;;;;;5085745;28;20048;-86
2022/11/17 02:48:25;;;;;;;7.50;4.18;;;7.30;99.90;;;;;;5069168;28;20123;-86
2022/11/17 02:50:53;;;;;;;13.82;5.20;;;7.40;99.90;;;;;;5085707;28;20049;-86
2022/11/17 02:53:23;;;;;;;8.40;4.38;;;7.20;99.90;;;;;;5080549;28;20093;-85
2022/11/17 02:55:51;;;;;;;7.30;4.38;;;7.20;99.90;;;;;;5105768;28;20040;-87
2022/11/17 02:58:18;;;;;;;7.95;4.60;;;7.30;99.90;;;;;;5072886;28;20040;-86
2022/11/17 03:00:56;;;;;;;7.63;4.43;;;7.30;99.90;;;;;;5089209;28;20036;-87
2022/11/17 03:03:31;;;;;;;8.07;4.95;;;7.20;99.90;;;;;;5092368;28;20481;-87
2022/11/17 03:06:32;;;;;;;10.95;4.85;;;7.20;99.90;;;;;;5092593;28;20037;-87
2022/11/17 03:09:12;;;;;;;8.52;4.28;;;7.10;99.90;;;;;;5092524;28;20073;-85
2022/11/17 03:11:44;;;;;;;7.65;4.28;;;7.10;99.90;;;;;;5092681;28;20038;-86
2022/11/17 03:14:39;;;;;;;8.35;4.47;;;7.10;99.90;;;;;;5081632;28;20045;-87
2022/11/17 03:17:18;;;;;;;7.15;4.07;;;7.10;99.90;;;;;;5057858;28;20087;-86
2022/11/17 03:19:54;;;;;;;10.05;4.57;;;7.10;99.90;;;;;;5071986;28;20040;-86
2022/11/17 03:22:31;;;;;;;8.30;4.57;;;7.10;99.90;;;;;;5088786;28;20451;-86
2022/11/17 03:25:03;;;;;;;8.43;4.30;;;7.10;99.90;;;;;;5087889;28;20109;-86
2022/11/17 03:27:38;;;;;;;8.73;4.40;;;7.10;99.90;;;;;;5082441;28;20055;-86
2022/11/17 03:30:07;;;;;;;7.90;4.85;;;7.10;99.90;;;;;;5072130;28;20041;-86
2022/11/17 03:32:39;;;;;;;9.05;4.90;;;7.00;99.90;;;;;;5092341;28;20036;-86
2022/11/17 03:35:16;;;;;;;9.15;5.03;;;7.00;99.90;;;;;;5090065;28;20040;-86
2022/11/17 03:37:53;;;;;;;7.93;4.68;;;7.00;99.90;;;;;;5082893;28;20385;-86
2022/11/17 03:40:26;;;;;;;7.20;4.53;;;6.90;99.90;;;;;;5095789;28;20036;-87
2022/11/17 03:42:57;;;;;;;8.27;4.55;;;6.90;99.90;;;;;;5087632;28;20511;-86
2022/11/17 03:45:40;;;;;;;9.25;4.88;;;6.90;99.90;;;;;;5091682;28;20040;-86
2022/11/17 03:48:22;;;;;;;9.25;5.00;;;6.90;99.90;;;;;;5091197;28;20389;-86
2022/11/17 03:51:06;;;;;;;9.20;5.20;;;6.90;99.90;;;;;;5091469;28;20055;-85
2022/11/17 03:53:34;;;;;;;8.55;4.70;;;6.80;99.90;;;;;;5091281;28;20086;-86
2022/11/17 03:56:28;;;;;;;10.02;5.80;;;6.90;99.90;;;;;;5090815;28;20053;-85
2022/11/17 03:59:10;;;;;;;9.55;4.97;;;6.70;99.90;;;;;;5070974;28;20045;-85
2022/11/17 04:01:37;;;;;;;9.25;4.97;;;6.70;99.90;;;;;;5087902;28;20045;-86
2022/11/17 04:04:03;;;;;;;9.25;4.75;;;6.70;99.90;;;;;;5037989;28;20537;-86
2022/11/17 04:06:30;;;;;;;8.25;4.80;;;6.70;99.90;;;;;;5070926;28;20068;-85
2022/11/17 04:08:57;;;;;;;10.77;5.30;;;7.20;99.90;;;;;;5091294;28;20048;-86
2022/11/17 04:16:53;;;;;;;7.53;4.40;;;6.60;99.90;;;;;;5078945;28;20041;-85
2022/11/17 04:19:20;;;;;;;10.35;5.53;;;6.60;99.90;;;;;;5057592;28;20041;-86
2022/11/17 04:21:47;;;;;;;9.55;5.03;;;6.60;99.90;;;;;;5074255;28;20492;-86
2022/11/17 04:24:14;;;;;;;8.07;4.50;;;6.50;99.90;;;;;;5074097;28;20039;-86
2022/11/17 04:29:27;;;;;;;8.27;4.95;;;6.50;99.90;;;;;;5073309;28;20094;-86
2022/11/17 04:31:53;;;;;;;9.88;5.28;;;6.50;99.90;;;;;;5054313;28;20485;-85
2022/11/17 04:34:20;;;;;;;8.60;4.75;;;6.40;99.90;;;;;;5070507;28;20048;-86
2022/11/17 04:36:47;;;;;;;8.48;4.78;;;6.40;99.90;;;;;;5037535;28;20049;-87
2022/11/17 04:39:14;;;;;;;12.48;5.03;;;6.40;99.90;;;;;;5066231;28;20056;-87
2022/11/17 04:41:56;;;;;;;9.93;5.03;;;6.40;99.90;;;;;;5100574;28;20104;-87
2022/11/17 04:44:25;;;;;;;11.75;5.10;;;6.40;99.90;;;;;;5114334;28;20042;-87
2022/11/17 04:46:53;;;;;;;8.57;4.75;;;6.30;99.90;;;;;;5107715;28;20774;-88
2022/11/17 04:49:21;;;;;;;8.93;4.53;;;6.30;99.90;;;;;;5077590;28;20040;-87
2022/11/17 04:51:49;;;;;;;8.90;4.90;;;6.30;99.90;;;;;;5077935;28;20082;-87
2022/11/17 04:54:19;;;;;;;9.82;4.20;;;6.30;99.90;;;;;;5093864;28;20044;-86
2022/11/17 04:56:47;;;;;;;8.23;4.75;;;6.30;99.90;;;;;;5093654;28;20492;-86
2022/11/17 04:59:13;;;;;;;9.23;4.78;;;6.30;99.90;;;;;;5093509;28;20044;-87
2022/11/17 05:01:40;;;;;;;9.07;4.80;;;6.30;99.90;;;;;;5077196;28;20051;-86
2022/11/17 05:04:09;;;;;;;8.88;5.00;;;6.90;99.90;;;;;;5060830;28;20047;-87
2022/11/17 05:06:39;;;;;;;9.50;5.10;;;6.20;99.90;;;;;;5094070;28;20084;-87
2022/11/17 05:09:12;;;;;;;8.95;4.70;;;6.30;99.90;;;;;;5108591;28;20039;-86
2022/11/17 05:14:25;;;;;;;8.43;4.85;;;6.20;99.90;;;;;;5130514;28;20078;-87
2022/11/17 05:17:04;;;;;;;11.10;4.97;;;6.20;99.90;;;;;;5130686;28;20054;-86
2022/11/17 05:19:37;;;;;;;9.05;5.00;;;6.20;99.90;;;;;;5080588;28;20036;-87
2022/11/17 05:24:51;;;;;;;6.90;3.92;;;6.10;99.90;;;;;;5106648;28;20078;-86
2022/11/17 05:27:17;;;;;;;8.90;4.80;;;6.10;99.90;;;;;;5110468;28;20032;-86
2022/11/17 05:29:44;;;;;;;9.68;4.80;;;6.30;99.90;;;;;;5085608;28;20041;-86
2022/11/17 05:32:11;;;;;;;7.43;4.03;;;6.10;99.90;;;;;;5081657;28;20036;-86
2022/11/17 05:34:37;;;;;;;7.32;4.47;;;6.10;99.90;;;;;;5096714;28;20130;-86
2022/11/17 05:37:05;;;;;;;6.82;4.28;;;6.80;99.90;;;;;;5130052;28;20487;-86
2022/11/17 05:39:31;;;;;;;6.43;3.83;;;6.10;99.90;;;;;;5077886;28;20036;-86
2022/11/17 05:41:58;;;;;;;6.95;3.83;;;6.50;99.90;;;;;;5113566;28;20079;-86
2022/11/17 05:44:25;;;;;;;7.38;4.00;;;6.00;99.90;;;;;;5113156;28;20035;-86
2022/11/17 05:46:51;;;;;;;8.35;4.50;;;6.00;99.90;;;;;;5080032;28;20061;-87
2022/11/17 05:49:18;;;;;;;6.18;3.55;;;6.00;99.90;;;;;;5096564;28;20039;-86
2022/11/17 05:51:45;;;;;;;7.05;3.85;;;6.00;99.90;;;;;;5077901;28;20040;-86
2022/11/17 05:54:11;;;;;;;7.80;3.40;;;6.00;99.90;;;;;;5093658;28;20035;-86
2022/11/17 05:56:49;;;;;;;6.90;4.15;;;6.10;99.90;;;;;;5093191;28;20074;-86
2022/11/17 05:59:49;;;;;;;10.77;3.75;;;6.00;99.90;;;;;;5093304;28;20076;-86
2022/11/17 06:02:25;;;;;;;6.88;3.60;;;6.00;99.90;;;;;;5077802;28;20454;-86
2022/11/17 06:04:52;;;;;;;6.55;3.40;;;6.30;99.90;;;;;;5092871;28;20070;-86
2022/11/17 06:07:19;;;;;;;5.38;3.40;;;6.00;99.90;;;;;;5075995;28;20101;-86
2022/11/17 06:09:46;;;;;;;7.57;3.45;;;5.90;99.90;;;;;;5076084;28;20044;-86
2022/11/17 06:12:14;;;;;;;5.93;3.40;;;6.00;99.90;;;;;;5092473;28;20036;-86
2022/11/17 06:14:40;;;;;;;6.13;3.38;;;5.90;99.90;;;;;;5109288;28;20093;-86
2022/11/17 06:17:16;;;;;;;6.63;3.65;;;5.90;99.90;;;;;;5092648;28;20040;-85
2022/11/17 06:19:48;;;;;;;7.20;3.67;;;5.90;99.90;;;;;;5093170;28;20037;-87
2022/11/17 06:22:14;;;;;;;9.07;3.42;;;5.90;99.90;;;;;;5102113;28;20513;-86
2022/11/17 06:24:43;;;;;;;7.22;3.38;;;6.20;99.90;;;;;;5064359;28;20036;-86
2022/11/17 06:27:15;;;;;;;7.43;3.53;;;5.90;99.90;;;;;;5094225;28;20395;-85
2022/11/17 06:29:42;;;;;;;7.38;3.47;;;5.90;99.90;;;;;;5093255;28;20048;-87
2022/11/17 06:32:09;;;;;;;6.80;3.28;;;5.80;99.90;;;;;;5076178;28;20126;-87
2022/11/17 06:34:36;;;;;;;9.00;3.90;;;5.80;99.90;;;;;;5076430;28;20082;-86
2022/11/17 06:37:03;;;;;;;8.68;3.63;;;5.80;99.90;;;;;;5094853;28;20083;-87
2022/11/17 06:39:29;;;;;;;7.10;3.47;;;5.90;99.90;;;;;;5096418;28;20583;-87
2022/11/17 06:41:56;;;;;;;6.60;3.63;;;5.90;99.90;;;;;;5099353;28;20056;-87
2022/11/17 06:44:23;;;;;;;6.45;3.45;;;5.90;99.90;;;;;;5100518;28;20035;-87
2022/11/17 06:46:49;;;;;;;6.30;3.55;;;5.80;99.90;;;;;;5083511;28;20066;-87
2022/11/17 06:49:16;;;;;;;7.95;3.92;;;5.90;99.90;;;;;;5099959;28;20412;-87
2022/11/17 06:51:43;;;;;;;7.53;3.72;;;5.80;99.90;;;;;;5100466;28;20038;-88
2022/11/17 06:54:11;;;;;;;7.00;3.53;;;5.90;99.90;;;;;;5099649;28;20062;-88
2022/11/17 06:56:37;;;;;;;7.05;3.65;;;5.80;99.90;;;;;;5096263;28;20052;-88
2022/11/17 06:59:04;;;;;;;8.50;3.30;;;5.80;99.90;;;;;;5079711;28;20488;-88
2022/11/17 07:01:31;;;;;;;6.75;3.30;;;5.80;99.90;;;;;;5079855;28;20479;-87
2022/11/17 07:03:57;;;;;;;6.70;3.33;;;5.90;99.90;;;;;;5093135;28;20035;-86
2022/11/17 07:06:24;;;;;;;6.13;3.33;;;5.80;99.90;;;;;;5099800;28;20031;-87
2022/11/17 07:08:51;;;;;;;7.88;3.80;;;5.80;99.90;;;;;;5116808;28;20476;-88
2022/11/17 07:11:17;;;;;;;6.40;3.40;;;5.80;99.90;;;;;;5083203;28;20078;-87
2022/11/17 07:13:44;;;;;;;5.60;3.33;;;6.30;99.90;;;;;;5097789;28;20047;-88
2022/11/17 07:16:14;;;;;;;6.70;3.15;;;5.80;99.90;;;;;;5099462;28;20074;-87
2022/11/17 07:18:41;;;;;;;6.18;3.08;;;5.80;99.90;;;;;;5115925;28;20054;-88
2022/11/17 07:21:11;;;;;;;10.95;3.05;;;5.80;99.90;;;;;;5099882;28;20031;-88
2022/11/17 07:23:39;;;;;;;6.22;2.90;;;5.80;99.90;;;;;;5113592;28;20445;-88
2022/11/17 07:26:06;;;;;;;7.13;3.25;;;5.80;99.90;;;;;;5099195;28;20036;-87
2022/11/17 07:28:34;;;;;;;5.80;2.95;;;5.80;99.90;;;;;;5115525;28;20126;-88
2022/11/17 07:31:03;;;;;;;5.95;2.97;;;5.80;99.90;;;;;;5115374;28;20069;-88
2022/11/17 07:33:30;;;;;;;6.60;2.70;;;5.80;99.90;;;;;;5129798;28;20537;-87
2022/11/17 07:36:05;;;;;;;5.30;2.80;;;5.90;99.90;;;;;;5090034;28;20124;-89
2022/11/17 07:38:33;;;;;;;4.32;2.40;;;5.80;99.90;;;;;;5100191;28;20039;-88
2022/11/17 07:41:00;;;;;;;5.43;2.75;;;5.80;99.90;;;;;;5104052;28;20588;-88
2022/11/17 07:43:27;;;;;;;4.30;2.40;;;5.80;99.90;;;;;;5079057;28;20044;-88
2022/11/17 07:45:54;;;;;;;5.07;2.70;;;6.40;99.90;;;;;;5091912;28;20039;-87
2022/11/17 07:48:22;;;;;;;6.28;2.88;;;5.80;99.90;;;;;;5095512;28;20082;-86
2022/11/17 07:50:48;;;;;;;4.82;2.40;;;5.80;99.90;;;;;;5096522;28;20059;-87
2022/11/17 07:53:15;;;;;;;7.72;2.70;;;5.70;99.90;;;;;;5064964;28;20040;-86
2022/11/17 07:55:42;;;;;;;5.60;2.50;;;5.80;99.90;;;;;;5093679;28;20416;-86
2022/11/17 07:58:08;;;;;;;4.90;2.45;;;5.70;99.90;;;;;;5084445;28;20185;-86
2022/11/17 08:00:38;;;;;;;6.03;2.88;;;5.80;99.90;;;;;;5094914;28;20043;-87
2022/11/17 08:03:05;;;;;;;4.53;2.20;;;5.70;99.90;;;;;;5079576;28;20038;-87
2022/11/17 08:05:36;;;;;;;4.60;2.17;;;5.80;99.90;;;;;;5081531;28;20484;-87
2022/11/17 08:08:04;;;;;;;4.93;2.53;;;5.60;99.90;;;;;;5097828;28;20036;-87
2022/11/17 08:10:30;;;;;;;4.70;2.10;;;5.70;99.90;;;;;;5092128;28;20047;-88
2022/11/17 08:12:59;;;;;;;5.97;2.78;;;5.70;99.90;;;;;;5080582;28;20044;-87
2022/11/17 08:15:28;;;;;;;6.05;2.65;;;5.70;99.90;;;;;;5079291;28;20073;-87
2022/11/17 08:17:57;;;;;;;4.88;2.25;;;5.70;99.90;;;;;;5108238;28;20075;-87
2022/11/17 08:20:26;;;;;;;4.88;2.35;;;5.80;99.90;;;;;;5114687;28;20071;-86
2022/11/17 08:22:59;;;;;;;5.10;2.22;;;5.70;99.90;;;;;;5085636;28;20732;-83
2022/11/17 08:25:26;;;;;;;5.90;2.80;;;5.70;99.90;;;;;;5078115;28;20118;-82
2022/11/17 08:27:55;;;;;;;4.32;2.33;;;5.80;99.90;;;;;;5102195;28;20039;-85
2022/11/17 08:30:22;;;;;;;5.75;2.83;;;5.80;99.90;;;;;;5114182;28;20047;-82
2022/11/17 08:32:51;;;;;;;6.68;2.80;;;5.80;99.90;;;;;;5097071;28;20036;-83
2022/11/17 08:35:21;;;;;;;6.28;2.97;;;5.80;99.90;;;;;;5106618;28;20060;-84
2022/11/17 08:37:48;;;;;;;5.35;2.55;;;5.80;99.90;;;;;;5126472;28;20044;-84
2022/11/17 08:40:16;;;;;;;5.80;3.00;;;5.80;99.90;;;;;;5097423;28;20047;-85
2022/11/17 08:42:43;;;;;;;5.35;2.70;;;5.80;99.90;;;;;;5080658;28;20105;-85
2022/11/17 08:45:10;;;;;;;7.25;2.90;;;5.90;99.90;;;;;;5114003;28;20035;-84
2022/11/17 08:47:37;;;;;;;5.25;2.58;;;6.30;99.90;;;;;;5101681;28;20047;-84
2022/11/17 08:50:05;;;;;;;5.30;2.55;;;5.90;99.90;;;;;;5076675;28;20036;-84
2022/11/17 08:52:32;;;;;;;5.78;2.75;;;5.80;99.90;;;;;;5106710;28;20068;-84
2022/11/17 08:54:59;;;;;;;5.75;2.35;;;5.80;99.90;;;;;;5096892;28;20040;-84
2022/11/17 08:57:28;;;;;;;6.45;2.92;;;5.80;99.90;;;;;;5089040;28;20109;-84
2022/11/17 08:59:55;;;;;;;7.25;3.10;;;5.80;99.90;;;;;;5075938;28;20028;-84
2022/11/17 09:02:22;;;;;;;5.82;2.88;;;5.90;99.90;;;;;;5076632;28;20051;-84
2022/11/17 09:04:49;;;;;;;5.97;3.00;;;5.90;99.90;;;;;;5092687;28;20515;-83
2022/11/17 09:07:16;;;;;;;5.20;2.65;;;5.90;99.90;;;;;;5093120;28;20076;-83
2022/11/17 09:09:45;;;;;;;4.97;2.65;;;5.90;99.90;;;;;;5114960;28;20499;-83
2022/11/17 09:12:11;;;;;;;6.03;2.92;;;5.90;99.90;;;;;;5096899;28;20039;-83
2022/11/17 09:14:38;;;;;;;7.60;2.92;;;5.90;99.90;;;;;;5096286;28;20031;-84
2022/11/17 09:17:05;;;;;;;5.93;2.47;;;5.90;99.90;;;;;;5113666;28;20047;-83
2022/11/17 09:19:31;;;;;;;5.10;2.42;;;5.90;99.90;;;;;;5096504;28;20087;-83
2022/11/17 09:21:58;;;;;;;6.93;2.90;;;5.90;99.90;;;;;;5112822;28;20507;-83
2022/11/17 09:24:25;;;;;;;4.60;2.70;;;5.90;99.90;;;;;;5080022;28;20479;-83
2022/11/17 09:26:53;;;;;;;5.53;2.67;;;5.90;99.90;;;;;;5096217;28;20436;-84
2022/11/17 09:29:20;;;;;;;6.75;2.63;;;5.90;99.90;;;;;;5130165;28;20086;-85
2022/11/17 09:31:47;;;;;;;9.80;2.95;;;5.90;99.90;;;;;;5095817;28;20070;-85
2022/11/17 09:34:15;;;;;;;5.28;2.80;;;6.20;99.90;;;;;;5096220;28;20046;-84
2022/11/17 09:36:41;;;;;;;6.50;3.17;;;5.90;99.90;;;;;;5112724;28;20050;-83
2022/11/17 09:39:08;;;;;;;7.10;3.30;;;5.90;99.90;;;;;;5079492;28;20044;-84
2022/11/17 09:41:40;;;;;;;4.68;2.70;;;6.00;99.90;;;;;;5075503;28;20053;-83
2022/11/17 09:44:25;;;;;;;6.78;3.17;;;5.90;99.90;;;;;;5069448;28;20037;-84
2022/11/17 09:47:40;;;;;;;6.78;3.38;;;5.90;99.90;;;;;;5068733;28;20553;-84
2022/11/17 09:50:26;;;;;;;8.00;3.33;;;5.90;99.90;;;;;;5062412;28;20051;-83
2022/11/17 09:53:11;;;;;;;5.07;2.65;;;6.00;99.90;;;;;;5069165;28;20037;-83
2022/11/17 09:55:40;;;;;;;5.53;2.80;;;5.90;99.90;;;;;;5068667;28;20076;-82
2022/11/17 09:58:33;;;;;;;5.80;2.97;;;5.90;99.90;;;;;;5068868;28;20045;-84
2022/11/17 10:01:00;;;;;;;5.45;3.20;;;5.90;99.90;;;;;;5084917;28;20044;-83
2022/11/17 10:03:32;;;;;;;5.43;3.08;;;5.90;99.90;;;;;;5071963;28;20033;-84
2022/11/17 10:06:05;;;;;;;5.80;3.20;;;5.90;99.90;;;;;;5088666;28;20045;-83
2022/11/17 10:08:44;;;;;;;6.22;3.13;;;5.90;99.90;;;;;;5089199;28;20072;-84
2022/11/17 10:11:32;;;;;;;6.15;3.55;;;5.80;99.90;;;;;;5091209;28;20045;-83
2022/11/17 10:14:07;;;;;;;6.07;2.88;;;5.90;99.90;;;;;;5072842;28;20044;-84
2022/11/17 10:16:35;;;;;;;6.20;3.22;;;5.90;99.90;;;;;;5073049;28;20040;-84
2022/11/17 10:19:40;;;;;;;5.57;2.92;;;5.90;99.90;;;;;;5072969;28;20044;-84
2022/11/17 10:22:26;;;;;;;8.20;3.22;;;5.90;99.90;;;;;;5065871;28;20133;-84
2022/11/17 10:24:57;;;;;;;6.05;2.75;;;5.90;99.90;;;;;;5081457;28;20048;-84
2022/11/17 10:27:32;;;;;;;5.70;3.22;;;5.90;99.90;;;;;;5076887;28;20041;-84
2022/11/17 10:30:18;;;;;;;6.45;2.67;;;5.80;99.90;;;;;;5103050;28;20044;-83
2022/11/17 10:32:56;;;;;;;6.45;2.97;;;5.80;99.90;;;;;;5092039;28;20045;-83
2022/11/17 10:35:34;;;;;;;5.68;2.80;;;5.90;99.90;;;;;;5092502;28;20037;-83
2022/11/17 10:38:12;;;;;;;6.53;3.28;;;5.80;99.90;;;;;;5085170;28;20412;-84
2022/11/17 10:40:38;;;;;;;5.47;2.63;;;5.80;99.90;;;;;;5072447;28;20045;-84
2022/11/17 10:43:11;;;;;;;6.93;3.30;;;5.80;99.90;;;;;;5104521;28;20048;-84
2022/11/17 10:45:45;;;;;;;5.47;2.85;;;5.80;99.90;;;;;;5083089;28;20044;-84
2022/11/17 10:48:22;;;;;;;6.97;3.20;;;5.80;99.90;;;;;;5076018;28;20036;-84
2022/11/17 10:51:03;;;;;;;7.90;3.88;;;5.80;99.90;;;;;;5091933;28;20071;-84
2022/11/17 10:53:42;;;;;;;5.53;3.20;;;5.80;99.90;;;;;;5092277;28;20048;-84
2022/11/17 10:56:12;;;;;;;7.43;3.80;;;5.80;99.90;;;;;;5057383;28;20048;-83
2022/11/17 10:59:17;;;;;;;4.90;2.88;;;5.80;99.90;;;;;;5080786;28;20115;-84
2022/11/17 11:01:46;;;;;;;6.65;3.47;;;5.80;99.90;;;;;;5072136;28;20666;-83
2022/11/17 11:04:38;;;;;;;7.40;3.65;;;6.20;99.90;;;;;;5106518;28;20048;-83
2022/11/17 11:07:20;;;;;;;8.43;3.78;;;5.90;99.90;;;;;;5090719;28;20068;-83
2022/11/17 11:10:05;;;;;;;8.13;3.75;;;5.90;99.90;;;;;;5108536;28;20046;-83
2022/11/17 11:12:44;;;;;;;9.13;4.10;;;5.90;99.90;;;;;;5072555;28;20079;-84
2022/11/17 11:15:22;;;;;;;7.57;4.00;;;5.90;99.90;;;;;;5091775;28;20048;-83
2022/11/17 11:17:50;;;;;;;7.25;3.90;;;5.90;99.90;;;;;;5074828;28;20041;-83
2022/11/17 11:20:20;;;;;;;7.78;4.05;;;5.90;99.90;;;;;;5083002;28;20033;-83
2022/11/17 11:23:07;;;;;;;6.72;3.80;;;5.90;99.90;;;;;;5083744;28;20036;-83
2022/11/17 11:25:42;;;;;;;7.35;3.95;;;5.90;99.90;;;;;;5088155;28;20080;-82
2022/11/17 11:28:30;;;;;;;6.57;3.17;;;5.90;99.90;;;;;;5088001;28;20040;-83
2022/11/17 11:31:14;;;;;;;6.78;3.97;;;6.00;99.90;;;;;;5087692;28;20052;-83
2022/11/17 11:34:04;;;;;;;7.50;3.95;;;6.00;99.90;;;;;;5074453;28;20052;-84
2022/11/17 11:36:40;;;;;;;6.60;3.65;;;6.00;99.90;;;;;;5091296;28;20056;-83
2022/11/17 11:39:27;;;;;;;7.10;3.72;;;6.00;99.90;;;;;;5090939;28;20037;-83
2022/11/17 11:42:13;;;;;;;6.85;3.83;;;6.00;99.90;;;;;;5092617;28;20117;-83
2022/11/17 11:44:40;;;;;;;;;;;6.00;99.90;;;;;;5083569;28;20048;-83
2022/11/17 11:47:41;;;;;;;8.52;4.18;;;6.00;99.90;;;;;;5071101;28;19917;-83
2022/11/17 11:50:22;;;;;;;7.43;3.65;;;6.00;99.90;;;;;;5087451;28;20091;-83
2022/11/17 11:52:56;;;;;;;8.50;4.05;;;6.00;99.90;;;;;;5071213;28;20056;-83
2022/11/17 11:55:25;;;;;;;9.40;4.60;;;6.00;99.90;;;;;;5082211;28;20040;-83
2022/11/17 11:58:04;;;;;;;8.57;4.15;;;6.10;99.90;;;;;;5091085;28;20131;-82
2022/11/17 12:00:32;;;;;;;8.68;4.28;;;6.00;99.90;;;;;;5090965;28;20483;-83
2022/11/17 12:03:15;;;;;;;7.13;3.95;;;6.00;99.90;;;;;;5057416;28;20452;-84
2022/11/17 12:06:41;;;;;;;10.07;4.60;;;6.10;99.90;;;;;;5081164;28;20047;-83
2022/11/17 12:09:11;;;;;;;7.97;4.05;;;6.10;99.90;;;;;;5090488;28;20045;-83
2022/11/17 12:14:30;;;;;;;8.48;4.10;;;6.10;99.90;;;;;;5107637;28;20044;-83
2022/11/17 12:17:12;;;;;;;7.90;4.22;;;6.00;99.90;;;;;;5072384;28;20037;-83
2022/11/17 12:19:56;;;;;;;7.72;3.90;;;6.10;99.90;;;;;;5070303;28;20041;-84
2022/11/17 12:22:28;;;;;;;6.63;3.70;;;6.10;99.90;;;;;;5070494;28;20040;-84
2022/11/17 12:24:58;;;;;;;6.20;3.50;;;6.00;99.90;;;;;;5087888;28;20123;-84
2022/11/17 12:27:51;;;;;;;6.75;3.85;;;6.10;99.90;;;;;;5102783;28;20382;-84
2022/11/17 12:30:35;;;;;;;7.53;3.78;;;6.00;99.90;;;;;;5075501;28;20124;-84
2022/11/17 12:33:04;;;;;;;8.63;3.83;;;6.00;99.90;;;;;;5069875;28;20455;-83
2022/11/17 12:35:36;;;;;;;7.75;3.90;;;6.10;99.90;;;;;;5053737;28;20076;-84
2022/11/17 12:38:18;;;;;;;6.55;3.58;;;6.00;99.90;;;;;;5053455;28;20048;-83
2022/11/17 12:40:45;;;;;;;7.55;3.67;;;6.10;99.90;;;;;;5087102;28;20133;-85
2022/11/17 12:43:15;;;;;;;6.53;3.75;;;6.00;99.90;;;;;;5105761;28;20083;-85
2022/11/17 12:45:57;;;;;;;7.22;3.80;;;6.10;99.90;;;;;;5109895;28;20044;-83
2022/11/17 12:48:36;;;;;;;7.15;3.83;;;6.50;99.90;;;;;;5103359;28;20091;-84
2022/11/17 12:51:29;;;;;;;5.60;3.00;;;6.10;99.90;;;;;;5102621;28;20090;-80
2022/11/17 12:54:19;;;;;;;7.97;3.22;;;6.10;99.90;;;;;;5119725;28;20079;-83
2022/11/17 12:57:18;;;;;;;5.63;2.83;;;6.10;99.90;;;;;;5109227;28;20079;-82
2022/11/17 13:00:01;;;;;;;6.15;3.17;;;6.10;99.90;;;;;;5101183;28;20051;-83
2022/11/17 13:02:52;;;;;;;6.88;3.60;;;6.20;99.90;;;;;;5098310;28;20094;-83
2022/11/17 13:05:21;;;;;;;5.50;3.35;;;6.20;99.90;;;;;;5090358;28;20465;-83
2022/11/17 13:07:48;;;;;;;7.15;3.25;;;6.20;99.90;;;;;;5126218;28;20036;-83
2022/11/17 13:10:29;;;;;;;5.78;3.33;;;6.20;99.90;;;;;;5125581;28;20124;-83
2022/11/17 13:13:19;;;;;;;6.10;3.50;;;6.20;99.90;;;;;;5126539;28;20126;-82
2022/11/17 13:15:51;;;;;;;6.85;3.30;;;6.20;99.90;;;;;;5121460;28;20036;-82
2022/11/17 13:18:32;;;;;;;6.20;3.50;;;6.20;99.90;;;;;;5108601;28;20408;-82
2022/11/17 13:20:59;;;;;;;4.90;2.85;;;6.20;99.90;;;;;;5109908;28;20031;-83
2022/11/17 13:23:31;;;;;;;6.47;3.55;;;6.50;99.90;;;;;;5099611;28;20043;-83
2022/11/17 13:26:22;;;;;;;7.72;3.08;;;6.20;99.90;;;;;;5112154;28;20085;-83
2022/11/17 13:29:13;;;;;;;5.72;3.33;;;6.20;99.90;;;;;;5099283;28;20031;-82
2022/11/17 13:31:40;;;;;;;5.03;2.97;;;6.20;99.90;;;;;;5123190;28;20082;-83
2022/11/17 13:34:13;;;;;;;5.22;2.80;;;6.20;99.90;;;;;;5103404;28;20044;-83
2022/11/17 13:36:57;;;;;;;5.68;3.13;;;6.20;99.90;;;;;;5106050;28;20083;-83
2022/11/17 13:39:25;;;;;;;9.93;3.47;;;6.30;99.90;;;;;;5097386;28;20062;-83
2022/11/17 13:41:52;;;;;;;5.75;3.17;;;6.60;99.90;;;;;;5069661;28;20049;-83
2022/11/17 13:44:22;;;;;;;7.78;3.45;;;6.20;99.90;;;;;;5086449;28;20090;-83
2022/11/17 13:46:49;;;;;;;5.85;3.10;;;6.30;99.90;;;;;;5105090;28;20032;-83
2022/11/17 13:49:35;;;;;;;5.40;2.92;;;6.30;99.90;;;;;;5067981;28;20043;-83
2022/11/17 13:52:04;;;;;;;4.50;2.45;;;6.30;99.90;;;;;;5065591;28;20045;-83
2022/11/17 13:54:31;;;;;;;5.63;3.30;;;6.30;99.90;;;;;;5081938;28;20056;-83